Time;durP1;ratioP1;P1;durP2;ratioP2;P2;SDS_P1;SDS_P2;PMS_P1;PMS_P2;Temp;Humidity;BMP_temperature;BMP_pressure;BME280_temperature;BME280_humidity;BME280_pressure;Samples;Min_cycle;Max_cycle;Signal;HPM_P1;HPM_P2
2022/04/05 00:02:07;;;;;;;30.00;8.73;;;;;;;8.98;100.00;100585.09;5013557;28;20505;-68
2022/04/05 00:04:32;;;;;;;27.10;8.38;;;;;;;8.96;100.00;100583.31;5014672;28;20090;-68
2022/04/05 00:06:58;;;;;;;24.60;7.65;;;;;;;8.93;100.00;100581.50;5013915;28;20105;-67
2022/04/05 00:09:23;;;;;;;26.02;7.22;;;;;;;8.92;100.00;100574.47;5015144;28;20030;-67
2022/04/05 00:11:48;;;;;;;37.15;8.68;;;;;;;8.89;100.00;100585.78;5011530;28;20018;-69
2022/04/05 00:14:14;;;;;;;25.52;6.80;;;;;;;8.89;100.00;100584.91;5014877;28;20157;-67
2022/04/05 00:16:39;;;;;;;25.77;6.90;;;;;;;8.89;100.00;100587.53;5015241;28;20049;-67
2022/04/05 00:19:05;;;;;;;32.33;8.15;;;;;;;8.88;100.00;100583.16;5012794;28;20053;-67
2022/04/05 00:21:30;;;;;;;30.02;6.78;;;;;;;8.86;100.00;100587.50;5022412;28;20026;-67
2022/04/05 00:23:56;;;;;;;35.63;9.10;;;;;;;8.84;100.00;100591.81;5012284;28;20134;-67
2022/04/05 00:26:21;;;;;;;22.45;7.78;;;;;;;8.83;100.00;100584.78;5016568;28;20105;-66
2022/04/05 00:28:47;;;;;;;41.78;8.70;;;;;;;8.80;100.00;100595.22;5013222;28;20488;-67
2022/04/05 00:31:12;;;;;;;30.90;8.30;;;;;;;8.75;100.00;100588.16;4996800;28;20030;-67
2022/04/05 00:33:38;;;;;;;22.42;7.32;;;;;;;8.73;100.00;100592.47;5009949;28;20030;-67
2022/04/05 00:36:03;;;;;;;28.90;8.13;;;;;;;8.72;100.00;100587.19;5014245;28;20030;-67
2022/04/05 00:38:28;;;;;;;31.10;7.10;;;;;;;8.71;100.00;100586.31;5013193;28;20034;-67
2022/04/05 00:40:54;;;;;;;26.98;7.60;;;;;;;8.69;100.00;100582.78;5023478;28;20034;-67
2022/04/05 00:43:19;;;;;;;30.45;7.63;;;;;;;8.64;100.00;100586.16;5013803;28;20041;-67
2022/04/05 00:45:44;;;;;;;29.27;7.85;;;;;;;8.62;100.00;100590.50;5014345;28;20482;-67
2022/04/05 00:48:11;;;;;;;32.45;8.02;;;;;;;8.60;100.00;100590.47;5012548;28;20036;-67
2022/04/05 00:50:38;;;;;;;33.45;7.60;;;;;;;8.59;100.00;100591.34;5013484;28;20068;-68
2022/04/05 00:53:06;;;;;;;28.40;8.00;;;;;;;8.58;100.00;100584.31;4996175;28;20084;-67
2022/04/05 00:55:33;;;;;;;31.25;7.40;;;;;;;8.50;100.00;100592.00;5014276;28;20075;-67
2022/04/05 00:58:01;;;;;;;32.47;7.90;;;;;;;8.49;100.00;100592.88;5015508;28;20054;-68
2022/04/05 01:00:27;;;;;;;27.45;8.52;;;;;;;8.50;100.00;100591.13;5013766;28;20034;-67
2022/04/05 01:02:54;;;;;;;34.58;7.65;;;;;;;8.46;100.00;100597.16;4999511;28;20088;-68
2022/04/05 01:05:21;;;;;;;24.40;7.75;;;;;;;8.40;100.00;100596.16;5011540;28;20042;-66
2022/04/05 01:07:48;;;;;;;27.08;7.80;;;;;;;8.40;100.00;100593.53;5012396;28;20029;-66
2022/04/05 01:10:14;;;;;;;32.75;7.68;;;;;;;8.41;100.00;100597.91;5012949;28;20033;-67
2022/04/05 01:12:39;;;;;;;25.13;8.10;;;;;;;8.41;100.00;100603.16;5013312;28;20028;-67
2022/04/05 01:15:05;;;;;;;29.88;9.13;;;;;;;8.36;100.00;100599.56;5012684;28;20072;-67
2022/04/05 01:17:31;;;;;;;25.05;7.85;;;;;;;8.36;100.00;100602.19;5013905;28;20022;-68
2022/04/05 01:19:57;;;;;;;31.73;9.43;;;;;;;8.38;100.00;100604.81;5018597;28;20042;-67
2022/04/05 01:22:22;;;;;;;37.75;9.45;;;;;;;8.36;100.00;100603.94;5012839;28;20041;-66
2022/04/05 01:24:48;;;;;;;35.75;10.00;;;;;;;8.37;100.00;100606.56;5012341;28;20382;-67
2022/04/05 01:27:18;;;;;;;40.70;10.50;;;;;;;8.35;100.00;100596.91;5016069;28;20038;-67
2022/04/05 01:29:45;;;;;;;30.23;10.40;;;;;;;8.33;100.00;100604.75;5013480;28;20034;-67
2022/04/05 01:32:10;;;;;;;33.55;12.10;;;;;;;8.30;100.00;100599.41;5012427;28;20022;-67
2022/04/05 01:34:37;;;;;;;31.42;10.23;;;;;;;8.23;100.00;100605.38;5013726;28;20037;-68
2022/04/05 01:37:05;;;;;;;31.52;10.10;;;;;;;8.19;100.00;100593.97;5013418;28;20108;-68
2022/04/05 01:39:33;;;;;;;31.95;9.13;;;;;;;8.14;100.00;100589.44;5017084;28;20030;-68
2022/04/05 01:42:01;;;;;;;30.75;9.32;;;;;;;8.13;100.00;100596.44;5012108;28;20045;-68
2022/04/05 01:44:28;;;;;;;29.55;10.43;;;;;;;8.10;100.00;100586.75;5017997;28;20466;-68
2022/04/05 01:46:54;;;;;;;28.15;10.35;;;;;;;8.07;100.00;100594.56;5009693;28;20034;-67
2022/04/05 01:49:20;;;;;;;25.95;9.85;;;;;;;8.07;100.00;100593.66;5012662;28;20034;-67
2022/04/05 01:51:45;;;;;;;28.48;8.60;;;;;;;8.06;100.00;100584.91;4995245;28;20029;-68
2022/04/05 01:54:13;;;;;;;30.05;8.40;;;;;;;8.05;100.00;100582.28;5009421;28;20026;-67
2022/04/05 01:56:49;;;;;;;28.50;8.02;;;;;;;8.03;100.00;100578.72;5016990;28;20018;-68
2022/04/05 01:59:17;;;;;;;19.65;7.03;;;;;;;8.01;100.00;100576.06;5010453;28;20036;-68
2022/04/05 02:01:43;;;;;;;22.73;8.38;;;;;;;7.98;100.00;100578.63;5010835;28;20443;-68
2022/04/05 02:04:10;;;;;;;23.10;8.63;;;;;;;7.97;100.00;100581.22;5009457;28;20053;-68
2022/04/05 02:06:36;;;;;;;26.73;8.45;;;;;;;7.97;100.00;100578.59;5011462;28;20076;-68
2022/04/05 02:09:03;;;;;;;32.85;9.23;;;;;;;7.98;100.00;100581.25;5004743;28;20033;-68
2022/04/05 02:11:28;;;;;;;34.45;8.73;;;;;;;7.99;100.00;100577.78;5025271;28;20022;-68
2022/04/05 02:13:53;;;;;;;29.45;9.52;;;;;;;8.00;100.00;100576.03;5011538;28;20038;-68
2022/04/05 02:16:18;;;;;;;28.58;9.63;;;;;;;8.01;100.00;100583.94;5013324;28;20524;-68
2022/04/05 02:18:44;;;;;;;48.95;10.40;;;;;;;8.04;100.00;100580.50;5010492;28;20026;-68
2022/04/05 02:21:10;;;;;;;39.65;10.73;;;;;;;8.08;100.00;100583.22;4994758;28;20038;-67
2022/04/05 02:23:35;;;;;;;44.00;11.63;;;;;;;8.15;100.00;100580.72;5012256;28;20064;-68
2022/04/05 02:26:01;;;;;;;53.53;12.27;;;;;;;8.15;100.00;100578.09;5021533;28;20473;-68
2022/04/05 02:28:26;;;;;;;45.80;13.75;;;;;;;8.21;100.00;100579.13;5014602;28;20030;-67
2022/04/05 02:30:52;;;;;;;38.85;13.85;;;;;;;8.24;100.00;100573.06;5012907;28;20025;-68
2022/04/05 02:33:18;;;;;;;39.85;13.43;;;;;;;8.27;100.00;100573.13;5018842;28;20486;-67
2022/04/05 02:35:43;;;;;;;45.67;15.88;;;;;;;8.28;100.00;100580.16;5011391;28;20038;-69
2022/04/05 02:38:09;;;;;;;44.13;15.32;;;;;;;8.32;100.00;100571.50;5012141;28;20033;-69
2022/04/05 02:40:34;;;;;;;38.88;15.35;;;;;;;8.38;100.00;100574.28;5011374;28;20513;-69
2022/04/05 02:43:00;;;;;;;43.28;16.90;;;;;;;8.37;100.00;100580.34;5014497;28;20397;-68
2022/04/05 02:45:25;;;;;;;49.20;16.75;;;;;;;8.39;100.00;100575.13;5012301;28;20034;-69
2022/04/05 02:47:50;;;;;;;37.67;15.50;;;;;;;8.43;100.00;100575.22;5016174;28;20025;-68
2022/04/05 02:50:17;;;;;;;45.53;15.63;;;;;;;8.46;100.00;100576.19;5016436;28;20037;-68
2022/04/05 02:52:47;;;;;;;31.65;16.15;;;;;;;8.49;100.00;100573.63;5015974;28;20030;-69
2022/04/05 02:55:12;;;;;;;35.85;15.88;;;;;;;8.49;100.00;100566.66;5018526;28;20034;-68
2022/04/05 02:57:39;;;;;;;26.25;15.15;;;;;;;8.53;100.00;100575.44;5014065;28;20026;-68
2022/04/05 03:00:07;;;;;;;34.33;15.70;;;;;;;8.54;100.00;100571.97;5015807;28;20034;-69
2022/04/05 03:02:34;;;;;;;27.65;15.88;;;;;;;8.54;100.00;100575.47;5015915;28;20116;-68
2022/04/05 03:05:00;;;;;;;30.58;16.08;;;;;;;8.56;100.00;100559.78;5017883;28;20112;-69
2022/04/05 03:07:25;;;;;;;34.20;15.52;;;;;;;8.58;100.00;100573.81;5019781;28;20104;-68
2022/04/05 03:09:50;;;;;;;31.13;15.10;;;;;;;8.56;100.00;100570.25;5013627;28;20033;-69
2022/04/05 03:12:16;;;;;;;31.52;15.88;;;;;;;8.58;100.00;100568.56;5015489;28;20025;-68
2022/04/05 03:14:41;;;;;;;33.10;14.85;;;;;;;8.61;100.00;100568.63;5018335;28;20028;-68
2022/04/05 03:17:06;;;;;;;33.22;15.05;;;;;;;8.59;100.00;100571.22;5014673;28;20029;-69
2022/04/05 03:19:32;;;;;;;30.83;16.33;;;;;;;8.63;100.00;100561.69;5015958;28;20501;-69
2022/04/05 03:21:57;;;;;;;29.45;15.40;;;;;;;8.66;100.00;100569.59;5013261;28;20030;-68
2022/04/05 03:24:22;;;;;;;33.47;15.35;;;;;;;8.64;100.00;100566.09;5014892;28;20036;-68
2022/04/05 03:26:47;;;;;;;29.77;14.65;;;;;;;8.64;100.00;100568.72;5018252;28;20082;-68
2022/04/05 03:29:13;;;;;;;37.28;15.55;;;;;;;8.63;100.00;100556.44;5015259;28;20457;-68
2022/04/05 03:31:38;;;;;;;30.83;15.63;;;;;;;8.65;100.00;100562.59;5015916;28;20026;-68
2022/04/05 03:34:03;;;;;;;31.98;15.07;;;;;;;8.65;100.00;100565.22;5015208;28;20037;-68
2022/04/05 03:36:29;;;;;;;34.15;15.07;;;;;;;8.67;100.00;100552.13;5016166;28;20057;-69
2022/04/05 03:38:54;;;;;;;29.95;15.07;;;;;;;8.66;100.00;100566.97;5015301;28;20469;-68
2022/04/05 03:41:21;;;;;;;32.88;14.52;;;;;;;8.65;100.00;100566.97;5014195;28;20447;-69
2022/04/05 03:43:46;;;;;;;27.42;13.60;;;;;;;8.65;100.00;100559.97;5014827;28;20080;-68
2022/04/05 03:46:11;;;;;;;30.23;14.45;;;;;;;8.66;100.00;100555.63;5014397;28;20478;-68
2022/04/05 03:48:37;;;;;;;34.75;14.80;;;;;;;8.64;100.00;100552.97;5015045;28;20022;-68
2022/04/05 03:51:09;;;;;;;29.77;14.68;;;;;;;8.64;100.00;100552.97;5015630;28;20034;-68
2022/04/05 03:53:34;;;;;;;32.30;14.25;;;;;;;8.66;100.00;100556.50;5014088;28;20038;-68
2022/04/05 03:55:59;;;;;;;30.58;14.10;;;;;;;8.66;100.00;100556.50;5015131;28;20359;-68
2022/04/05 03:58:25;;;;;;;35.55;13.60;;;;;;;8.68;100.00;100549.56;5014224;28;20465;-68
2022/04/05 04:00:51;;;;;;;41.75;14.60;;;;;;;8.67;100.00;100553.03;5013974;28;20113;-68
2022/04/05 04:03:17;;;;;;;35.70;15.27;;;;;;;8.69;100.00;100555.66;5013016;28;20478;-68
2022/04/05 04:05:42;;;;;;;31.85;14.95;;;;;;;8.69;100.00;100559.16;5014358;28;20048;-68
2022/04/05 04:08:07;;;;;;;34.28;13.55;;;;;;;8.69;100.00;100556.53;5014783;28;20022;-68
2022/04/05 04:10:33;;;;;;;40.35;13.95;;;;;;;8.72;100.00;100561.88;5016326;28;20571;-68
2022/04/05 04:12:58;;;;;;;44.17;13.55;;;;;;;8.69;100.00;100555.66;4996477;28;20511;-68
2022/04/05 04:15:24;;;;;;;30.00;13.30;;;;;;;8.71;100.00;100553.97;5017766;28;20026;-68
2022/04/05 04:17:49;;;;;;;39.08;13.27;;;;;;;8.69;100.00;100551.28;5015102;28;20362;-68
2022/04/05 04:20:14;;;;;;;34.30;12.23;;;;;;;8.71;100.00;100553.97;5013986;28;20121;-68
2022/04/05 04:22:40;;;;;;;41.58;12.30;;;;;;;8.72;100.00;100548.75;5014134;28;20078;-68
2022/04/05 04:25:05;;;;;;;37.35;11.63;;;;;;;8.74;100.00;100549.66;5013089;28;20038;-68
2022/04/05 04:27:31;;;;;;;26.83;11.32;;;;;;;8.73;100.00;100542.63;5014536;28;20038;-68
2022/04/05 04:29:56;;;;;;;33.88;10.73;;;;;;;8.77;100.00;100546.22;5012725;28;20386;-68
2022/04/05 04:32:21;;;;;;;32.83;11.45;;;;;;;8.77;100.00;100548.81;5014772;28;20058;-68
2022/04/05 04:34:47;;;;;;;31.00;11.43;;;;;;;8.80;100.00;100555.88;5014325;28;20156;-68
2022/04/05 04:37:13;;;;;;;26.55;11.02;;;;;;;8.84;100.00;100550.69;5014968;28;20100;-68
2022/04/05 04:39:38;;;;;;;30.13;10.35;;;;;;;8.86;100.00;100542.88;5013647;28;20033;-68
2022/04/05 04:42:04;;;;;;;27.60;10.98;;;;;;;8.89;100.00;100549.06;5012433;28;20025;-68
2022/04/05 04:44:30;;;;;;;27.73;10.45;;;;;;;8.93;100.00;100556.13;5012627;28;20025;-68
2022/04/05 04:46:55;;;;;;;23.25;10.63;;;;;;;8.96;100.00;100557.94;5017602;28;20251;-68
2022/04/05 04:49:20;;;;;;;27.38;10.40;;;;;;;8.97;100.00;100551.84;5013937;28;20537;-68
2022/04/05 04:51:46;;;;;;;24.25;9.90;;;;;;;8.98;100.00;100553.59;5014446;28;20477;-68
2022/04/05 04:54:11;;;;;;;21.33;9.23;;;;;;;9.01;100.00;100558.03;4994179;28;20049;-68
2022/04/05 04:56:37;;;;;;;23.55;8.93;;;;;;;9.01;100.00;100556.28;5017885;28;20076;-68
2022/04/05 04:59:02;;;;;;;21.45;8.88;;;;;;;9.06;100.00;100557.25;5013180;28;20390;-68
2022/04/05 05:01:27;;;;;;;19.40;8.40;;;;;;;9.09;100.00;100546.81;5011160;28;20025;-68
2022/04/05 05:03:53;;;;;;;23.60;8.50;;;;;;;9.14;100.00;100553.88;5011421;28;20034;-67
2022/04/05 05:06:18;;;;;;;21.20;8.02;;;;;;;9.14;100.00;100553.88;5011546;28;20032;-67
2022/04/05 05:08:44;;;;;;;22.67;7.55;;;;;;;9.13;100.00;100552.09;5011849;28;20036;-68
2022/04/05 05:11:12;;;;;;;19.35;8.52;;;;;;;9.10;100.00;100548.56;5013970;28;20044;-68
2022/04/05 05:13:37;;;;;;;23.90;8.15;;;;;;;9.13;100.00;100559.97;5012015;28;20200;-73
2022/04/05 05:16:03;;;;;;;17.88;8.85;;;;;;;9.15;100.00;100555.66;5011498;28;20116;-72
2022/04/05 05:18:29;;;;;;;21.73;7.97;;;;;;;9.17;100.00;100564.41;5010303;28;20061;-71
2022/04/05 05:20:54;;;;;;;25.25;8.63;;;;;;;9.17;100.00;100564.41;5025671;28;20475;-70
2022/04/05 05:23:20;;;;;;;19.45;8.25;;;;;;;9.14;100.00;100562.63;5014078;28;20111;-72
2022/04/05 05:25:46;;;;;;;21.83;9.55;;;;;;;9.16;100.00;100565.28;5005430;28;20421;-67
2022/04/05 05:28:12;;;;;;;18.50;8.05;;;;;;;9.16;100.00;100562.69;5005906;28;20855;-67
2022/04/05 05:30:37;;;;;;;21.20;7.80;;;;;;;9.24;100.00;100563.69;5013691;28;20034;-70
2022/04/05 05:33:03;;;;;;;22.92;7.25;;;;;;;9.27;100.00;100567.22;5010363;28;20022;-71
2022/04/05 05:35:29;;;;;;;20.30;7.40;;;;;;;9.29;100.00;100569.88;4996883;28;20072;-71
2022/04/05 05:37:56;;;;;;;15.93;7.22;;;;;;;9.26;100.00;100568.13;5006500;28;20057;-71
2022/04/05 05:40:21;;;;;;;20.13;7.68;;;;;;;9.21;100.00;100571.50;5007251;28;20030;-72
2022/04/05 05:42:51;;;;;;;26.45;8.00;;;;;;;9.16;100.00;100567.91;5009148;28;20076;-71
2022/04/05 05:45:17;;;;;;;24.40;7.28;;;;;;;9.16;100.00;100574.03;5008242;28;20033;-72
2022/04/05 05:47:43;;;;;;;21.40;7.20;;;;;;;9.15;100.00;100566.16;5012342;28;20047;-72
2022/04/05 05:50:10;;;;;;;20.05;8.25;;;;;;;9.16;100.00;100581.91;5009940;28;20095;-73
2022/04/05 05:52:36;;;;;;;20.80;7.70;;;;;;;9.18;100.00;100581.94;4996589;28;20033;-72
2022/04/05 05:55:02;;;;;;;16.80;7.07;;;;;;;9.21;100.00;100577.66;5016047;28;20041;-71
2022/04/05 05:57:27;;;;;;;15.43;7.40;;;;;;;9.25;100.00;100582.09;4994382;28;20079;-70
2022/04/05 05:59:52;;;;;;;17.65;7.00;;;;;;;9.27;100.00;100588.25;4994963;28;20053;-72
2022/04/05 06:02:18;;;;;;;22.27;7.03;;;;;;;9.26;100.00;100586.50;5007558;28;20038;-72
2022/04/05 06:04:43;;;;;;;15.57;6.72;;;;;;;9.28;100.00;100589.13;5012577;28;20032;-72
2022/04/05 06:07:09;;;;;;;14.77;7.10;;;;;;;9.29;100.00;100577.75;5010487;28;20101;-67
2022/04/05 06:09:35;;;;;;;18.35;6.68;;;;;;;9.37;100.00;100588.41;5014931;28;20026;-67
2022/04/05 06:12:00;;;;;;;18.67;6.65;;;;;;;9.41;100.00;100592.84;5010712;28;20021;-68
2022/04/05 06:14:25;;;;;;;13.10;6.95;;;;;;;9.43;100.00;100583.28;5010934;28;20114;-68
2022/04/05 06:16:50;;;;;;;17.20;6.13;;;;;;;9.48;100.00;100591.22;5009900;28;20441;-68
2022/04/05 06:19:16;;;;;;;12.75;6.22;;;;;;;9.51;100.00;100578.13;5020907;28;20560;-67
2022/04/05 06:21:41;;;;;;;17.23;6.70;;;;;;;9.54;100.00;100588.72;5017356;28;20482;-67
2022/04/05 06:24:06;;;;;;;16.17;6.13;;;;;;;9.56;100.00;100589.59;5024206;28;20030;-67
2022/04/05 06:26:32;;;;;;;11.65;6.03;;;;;;;9.59;100.00;100597.53;5010558;28;20029;-68
2022/04/05 06:28:57;;;;;;;15.57;5.40;;;;;;;9.58;100.00;100593.16;5011497;28;20354;-67
2022/04/05 06:31:23;;;;;;;12.20;4.97;;;;;;;9.58;100.00;100593.16;5013093;28;20033;-67
2022/04/05 06:33:48;;;;;;;16.33;5.55;;;;;;;9.58;100.00;100593.16;5011637;28;20034;-67
2022/04/05 06:36:14;;;;;;;9.75;4.75;;;;;;;9.58;100.00;100587.91;5012201;28;20109;-68
2022/04/05 06:38:39;;;;;;;12.77;4.93;;;;;;;9.60;100.00;100592.31;5020946;28;20030;-68
2022/04/05 06:41:04;;;;;;;16.65;5.55;;;;;;;9.64;100.00;100597.63;5013261;28;20057;-68
2022/04/05 06:43:30;;;;;;;9.05;4.88;;;;;;;9.69;100.00;100593.31;5011504;28;20030;-68
2022/04/05 06:45:55;;;;;;;10.43;5.43;;;;;;;9.76;100.00;100601.31;5012317;28;20034;-68
2022/04/05 06:48:20;;;;;;;11.30;4.30;;;;;;;9.79;100.00;100609.25;5012954;28;20067;-72
2022/04/05 06:50:47;;;;;;;9.65;4.50;;;;;;;9.85;100.00;100607.56;5012730;28;20021;-71
2022/04/05 06:53:13;;;;;;;18.58;5.03;;;;;;;9.85;100.00;100591.78;5011168;28;20533;-71
2022/04/05 06:55:38;;;;;;;12.27;4.45;;;;;;;9.89;100.00;100606.75;5012842;28;20030;-71
2022/04/05 06:58:04;;;;;;;18.10;5.05;;;;;;;9.91;100.00;100607.69;5012314;28;20497;-71
2022/04/05 07:00:29;;;;;;;12.38;4.80;;;;;;;9.98;100.00;100606.91;5012816;28;20096;-71
2022/04/05 07:02:56;;;;;;;16.38;4.43;;;;;;;10.01;100.00;100614.84;5012432;28;20423;-71
2022/04/05 07:05:23;;;;;;;13.68;5.03;;;;;;;10.03;100.00;100617.50;5011638;28;20045;-70
2022/04/05 07:07:48;;;;;;;15.15;4.80;;;;;;;9.99;100.00;100611.31;5015567;28;20025;-70
2022/04/05 07:10:16;;;;;;;16.52;4.65;;;;;;;9.99;100.00;100621.81;5002327;28;20030;-72
2022/04/05 07:12:43;;;;;;;13.07;4.65;;;;;;;9.98;100.00;100620.03;5012653;28;20105;-71
2022/04/05 07:15:10;;;;;;;11.60;4.18;;;;;;;10.02;100.00;100628.88;5012549;28;20054;-71
2022/04/05 07:17:36;;;;;;;9.73;4.05;;;;;;;10.05;100.00;100621.94;5011340;28;20488;-72
2022/04/05 07:20:01;;;;;;;11.77;4.25;;;;;;;10.10;100.00;100633.38;5012180;28;20038;-72
2022/04/05 07:22:27;;;;;;;8.90;3.88;;;;;;;10.10;100.00;100620.22;5012225;28;20056;-71
2022/04/05 07:24:52;;;;;;;16.50;4.68;;;;;;;10.10;100.00;100622.84;4995376;28;20056;-70
2022/04/05 07:27:18;;;;;;;11.20;4.30;;;;;;;10.09;100.00;100629.00;5005232;28;20363;-72
2022/04/05 07:29:43;;;;;;;10.68;4.32;;;;;;;10.06;100.00;100623.66;5017128;28;20026;-71
2022/04/05 07:32:08;;;;;;;7.57;4.25;;;;;;;10.05;100.00;100627.19;5015698;28;20500;-70
2022/04/05 07:34:34;;;;;;;13.63;4.00;;;;;;;10.08;100.00;100626.34;5016132;28;20390;-71
2022/04/05 07:37:00;;;;;;;8.80;4.05;;;;;;;10.12;100.00;100623.78;5016735;28;20042;-71
2022/04/05 07:39:26;;;;;;;11.70;4.32;;;;;;;10.13;100.00;100630.81;5014956;28;20030;-72
2022/04/05 07:41:52;;;;;;;11.45;4.00;;;;;;;10.11;100.00;100629.88;5019531;28;20405;-72
2022/04/05 07:44:18;;;;;;;12.38;4.30;;;;;;;10.13;100.00;100630.81;5016221;28;20087;-72
2022/04/05 07:46:44;;;;;;;11.23;4.50;;;;;;;10.13;100.00;100632.53;5010193;28;20044;-72
2022/04/05 07:49:09;;;;;;;11.23;3.85;;;;;;;10.10;100.00;100620.22;5013905;28;20053;-72
2022/04/05 07:51:34;;;;;;;10.45;4.53;;;;;;;10.08;100.00;100626.34;5018733;28;20033;-72
2022/04/05 07:54:00;;;;;;;15.75;4.20;;;;;;;10.05;100.00;100621.03;5023310;28;20072;-72
2022/04/05 07:56:25;;;;;;;9.38;4.25;;;;;;;9.96;100.00;100630.53;5014671;28;20022;-71
2022/04/05 07:58:50;;;;;;;11.43;4.45;;;;;;;9.93;100.00;100624.38;5014804;28;20025;-72
2022/04/05 08:01:16;;;;;;;10.85;4.38;;;;;;;9.91;100.00;100629.56;5017484;28;20112;-72
2022/04/05 08:03:41;;;;;;;12.90;4.70;;;;;;;9.85;100.00;100628.59;4996988;28;20024;-72
2022/04/05 08:06:07;;;;;;;7.75;5.05;;;;;;;9.84;100.00;100627.72;5014096;28;20036;-72
2022/04/05 08:08:32;;;;;;;12.10;5.10;;;;;;;9.87;100.00;100642.66;5014960;28;20017;-72
2022/04/05 08:10:58;;;;;;;15.40;4.60;;;;;;;9.90;100.00;100629.56;5014871;28;20067;-71
2022/04/05 08:13:26;;;;;;;10.48;4.43;;;;;;;9.96;100.00;100621.78;5012562;28;20033;-72
2022/04/05 08:15:51;;;;;;;10.27;4.07;;;;;;;9.99;100.00;100631.47;5014130;28;20029;-72
2022/04/05 08:18:17;;;;;;;12.95;4.35;;;;;;;10.03;100.00;100634.16;5013792;28;20091;-72
2022/04/05 08:20:43;;;;;;;16.08;5.20;;;;;;;10.05;100.00;100621.94;4996740;28;20046;-72
2022/04/05 08:23:08;;;;;;;14.30;4.72;;;;;;;9.99;100.00;100650.72;5014310;28;20081;-73
2022/04/05 08:25:34;;;;;;;13.02;4.45;;;;;;;9.93;100.00;100642.78;5014501;28;20025;-72
2022/04/05 08:27:59;;;;;;;12.43;4.57;;;;;;;9.90;100.00;100645.31;5017243;28;20061;-73
2022/04/05 08:30:25;;;;;;;13.50;4.10;;;;;;;9.83;100.00;100636.44;4988120;28;20022;-72
2022/04/05 08:32:50;;;;;;;19.65;4.55;;;;;;;9.81;100.00;100647.78;5014355;28;20030;-72
2022/04/05 08:35:18;;;;;;;16.25;4.80;;;;;;;9.78;100.00;100641.66;5017913;28;20386;-72
2022/04/05 08:37:45;;;;;;;11.25;4.65;;;;;;;9.79;100.00;100648.69;5015655;28;20125;-72
2022/04/05 08:40:13;;;;;;;10.73;4.32;;;;;;;9.80;100.00;100636.41;4996120;28;20029;-72
2022/04/05 08:42:41;;;;;;;11.30;4.55;;;;;;;9.86;100.00;100648.75;5015362;28;20045;-72
2022/04/05 08:45:10;;;;;;;13.00;4.78;;;;;;;9.95;100.00;100656.81;5012076;28;20391;-72
2022/04/05 08:47:39;;;;;;;19.75;4.55;;;;;;;10.01;100.00;100650.75;5013811;28;20458;-72
2022/04/05 08:50:05;;;;;;;13.45;5.13;;;;;;;10.10;100.00;100649.13;5014546;28;20108;-72
2022/04/05 08:52:30;;;;;;;8.98;4.00;;;;;;;10.19;100.00;100645.78;5014023;28;20108;-72
2022/04/05 08:54:56;;;;;;;11.02;4.68;;;;;;;10.25;100.00;100655.50;5014586;28;20025;-72
2022/04/05 08:57:21;;;;;;;10.18;4.10;;;;;;;10.32;100.00;100649.47;5013932;28;20394;-72
2022/04/05 08:59:47;;;;;;;12.55;4.55;;;;;;;10.37;100.00;100654.84;5014424;28;20101;-72
2022/04/05 09:02:14;;;;;;;14.43;4.20;;;;;;;10.39;100.00;100654.00;5012346;28;20435;-70
2022/04/05 09:04:40;;;;;;;11.88;3.83;;;;;;;10.41;100.00;100654.88;4995880;28;20066;-73
2022/04/05 09:07:25;;;;;;;14.10;4.90;;;;;;;10.44;100.00;100654.97;5024211;28;20041;-72
2022/04/05 09:10:13;;;;;;;13.13;4.15;;;;;;;10.46;100.00;100655.84;5015830;28;20033;-72
2022/04/05 09:12:44;;;;;;;14.35;4.18;;;;;;;10.45;100.00;100659.34;4991016;28;20053;-72
2022/04/05 09:15:16;;;;;;;13.40;4.28;;;;;;;10.53;100.00;100653.31;5014045;28;20061;-73
2022/04/05 09:17:43;;;;;;;11.98;3.65;;;;;;;10.53;100.00;100655.94;5012850;28;20495;-73
2022/04/05 09:20:09;;;;;;;13.75;3.90;;;;;;;10.56;100.00;100661.25;5014807;28;20520;-72
2022/04/05 09:22:35;;;;;;;14.75;4.28;;;;;;;10.58;100.00;100662.13;5013969;28;20037;-72
2022/04/05 09:25:05;;;;;;;11.27;3.78;;;;;;;10.63;100.00;100666.63;5013334;28;20481;-72
2022/04/05 09:27:51;;;;;;;12.30;3.88;;;;;;;10.66;100.00;100664.88;4995262;28;20121;-73
2022/04/05 09:30:19;;;;;;;10.93;4.05;;;;;;;10.68;100.00;100671.06;5010406;28;20109;-74
2022/04/05 09:32:48;;;;;;;7.85;3.42;;;;;;;10.68;100.00;100669.28;5013060;28;20040;-74
2022/04/05 09:35:16;;;;;;;12.02;4.13;;;;;;;10.73;100.00;100675.50;4995643;28;20052;-72
2022/04/05 09:37:42;;;;;;;12.98;3.97;;;;;;;10.77;100.00;100672.06;5012611;28;20029;-74
2022/04/05 09:40:34;;;;;;;12.63;3.67;;;;;;;10.79;100.00;100677.34;4990497;28;20037;-75
2022/04/05 09:43:15;;;;;;;7.88;3.30;;;;;;;10.85;100.00;100680.06;5017513;28;20057;-73
2022/04/05 09:46:01;;;;;;;11.73;3.40;;;;;;;10.86;100.00;100680.94;5016014;28;20108;-72
2022/04/05 09:48:33;;;;;;;9.65;3.38;;;;;;;10.84;100.00;100673.03;5012439;28;20021;-74
2022/04/05 09:51:06;;;;;;;15.55;4.18;;;;;;;10.86;100.00;100673.03;5012803;28;20033;-74
2022/04/05 09:53:40;;;;;;;9.35;3.55;;;;;;;10.82;100.00;100665.97;5014650;28;20037;-74
2022/04/05 09:56:29;;;;;;;11.70;3.78;;;;;;;10.78;100.00;100673.84;5012824;28;20112;-74
2022/04/05 09:58:57;;;;;;;9.32;3.88;;;;;;;10.74;100.00;100687.81;5013381;28;20042;-75
2022/04/05 10:01:26;;;;;;;8.00;3.95;;;;;;;10.72;100.00;100673.72;5012302;28;20026;-73
2022/04/05 10:04:09;;;;;;;11.75;3.53;;;;;;;10.74;100.00;100671.13;4993488;28;20036;-71
2022/04/05 10:06:43;;;;;;;7.55;2.83;;;;;;;10.76;100.00;100670.28;5006374;28;20477;-73
2022/04/05 10:09:09;;;;;;;10.25;3.70;;;;;;;10.79;100.00;100677.34;5010895;28;20032;-73
2022/04/05 10:11:37;;;;;;;11.20;3.42;;;;;;;10.84;100.00;100674.75;4996475;28;20034;-73
2022/04/05 10:14:04;;;;;;;13.43;3.38;;;;;;;10.89;100.00;100670.44;5013244;28;20056;-72
2022/04/05 10:16:31;;;;;;;12.23;3.78;;;;;;;10.95;100.00;100675.78;5016050;28;20029;-73
2022/04/05 10:18:59;;;;;;;9.57;3.88;;;;;;;11.03;100.00;100679.41;4993356;28;20028;-73
2022/04/05 10:21:28;;;;;;;9.38;3.72;;;;;;;11.19;100.00;100669.94;5011979;28;20041;-72
2022/04/05 10:23:58;;;;;;;11.80;3.40;;;;;;;11.37;100.00;100674.50;5018489;28;20501;-72
2022/04/05 10:26:30;;;;;;;12.65;3.38;;;;;;;11.50;100.00;100666.72;5010200;28;20033;-72
2022/04/05 10:28:58;;;;;;;11.88;4.45;;;;;;;11.50;100.00;100678.13;5013776;28;20018;-75
2022/04/05 10:31:32;;;;;;;9.18;4.00;;;;;;;11.47;100.00;100678.09;5009482;28;20394;-72
2022/04/05 10:34:36;;;;;;;12.45;3.63;;;;;;;11.45;100.00;100678.09;5014308;28;20033;-73
2022/04/05 10:37:17;;;;;;;12.95;4.25;;;;;;;11.41;100.00;100676.31;5010188;28;20140;-72
2022/04/05 10:39:44;;;;;;;11.93;3.83;;;;;;;11.51;100.00;100681.66;5012151;28;20073;-72
2022/04/05 10:42:09;;;;;;;14.13;4.43;;;;;;;11.47;100.00;100680.75;5013423;28;20048;-73
2022/04/05 10:44:36;;;;;;;12.85;3.75;;;;;;;11.48;100.00;100682.53;5018576;28;20030;-72
2022/04/05 10:47:04;;;;;;;9.70;3.80;;;;;;;11.45;100.00;100672.81;5013753;28;20049;-73
2022/04/05 10:49:39;;;;;;;11.55;4.43;;;;;;;11.47;100.00;100678.97;5012121;28;20033;-72
2022/04/05 10:52:06;;;;;;;11.77;4.60;;;;;;;11.43;100.00;100679.81;4998260;28;20030;-72
2022/04/05 10:54:36;;;;;;;9.57;4.20;;;;;;;11.42;100.00;100680.72;5013529;28;20375;-72
2022/04/05 10:57:27;;;;;;;9.15;3.95;;;;;;;11.42;100.00;100675.44;5015310;28;20033;-72
2022/04/05 11:00:18;;;;;;;11.63;4.18;;;;;;;11.42;100.00;100672.81;5024647;28;20033;-72
2022/04/05 11:03:02;;;;;;;7.50;3.65;;;;;;;11.42;100.00;100678.06;5011882;28;20049;-72
2022/04/05 11:05:37;;;;;;;12.75;4.43;;;;;;;11.47;100.00;100671.06;5009754;28;20033;-72
2022/04/05 11:08:07;;;;;;;10.02;3.90;;;;;;;11.50;100.00;100669.34;5014834;28;20097;-73
2022/04/05 11:10:41;;;;;;;11.70;4.30;;;;;;;11.54;100.00;100666.75;5016873;28;20418;-72
2022/04/05 11:13:13;;;;;;;8.38;4.10;;;;;;;11.66;100.00;100673.91;5003102;28;20168;-72
2022/04/05 11:15:44;;;;;;;12.23;4.70;;;;;;;11.77;100.00;100655.53;5005834;28;20037;-72